Avon, Utah
Current Conditions -  °F | °C
As of 8:35 PM on Saturday 25 Oct 2014 (Local Time) from KBMC Reporting Station
Clear Clear  
Wind Chill: 21°   Ceiling: Unl
Heat Index: 21°   Visibility: 10mi
Dew Point: -1°   Wind: 13mph
Humidity: 24%   Direction: 180°S
Pressure: 29.86"   Gusts: NA
Location:  41.5397°N, 111.856°W
Report Text: KBMC 260235Z AUTO 18011KT 10SM CLR 21/00 A2986 RMK AO1 T02061005
Loading
Personal Weather Stations






























Interactive Weather Map
Tropical Storm Tracking
New forecast layout! Learn more

10-Day Weather Forecast

Advertisements
Track Severe Weather on mobile